ASIAQ
Weather Now
GREENLAND SURVEY
Sorting:
| Location |
Updated [WGT/WGST] |
Temperature [°C] |
Wind [m/s] |
Air pressure [hPa] |
Relative humidity [%] |
Precipitation [mm] |
| Present | Wind chill | Speed | Max |
| Qaanaaq | 05.09 15:00 | 4,6 | 2,9 | 2,0 ⇒ | 3,1 | 992 | 86 | 0,0 |
| Kitsissut | 05.09 15:00 | 2,6 | -2,0 | 5,7 ⇓ | 8,8 | 993 | 94 | n/a |
| Kitsissorsuit | 05.09 15:00 | 4,6 | -3,2 | 21,6 ⇑ | 26,8 | 990 | 98 | n/a |
| Upernavik | 05.09 15:00 | 5,1 | -3,3 | 27,8 ⇑ | 35,8 | 984 | 96 | 1,1 |
| Qaarsut | 05.09 15:00 | 4,7 | -1,1 | 11,2 ⇖ | 13,4 | 999 | 77 | 0,0 |
| Nuussuaq | 05.09 15:00 | 4,5 | -2,8 | 18,5 ⇖ | 23,2 | 1004 | 82 | n/a |
| Qeqertarsuaq | 05.09 15:00 | 4,1 | -1,1 | 8,4 ⇐ | 10,8 | 1012 | 92 | 0,0 |
| Ilulissat | 05.09 15:00 | 4,4 | -0,6 | 8,0 ⇐ | 11,8 | 1010 | 84 | 0,0 |
| Qasigiannguit | 05.09 15:10 | 6,6 | 3,4 | 4,6 ⇑ | 8,2 | 1012 | 79 | n/a |
| Aasiaat | 05.09 15:00 | 5,3 | 1,5 | 5,6 ⇖ | 8,2 | 1009 | 98 | 0,1 |
| Kangerlussuaq | 05.09 15:00 | 7,5 | 5,7 | 2,8 ⇗ | 3,7 | 1009 | 54 | n/a |
| Sisimiut | 05.09 15:00 | 9,3 | 7,9 | 2,6 ⇐ | 3,1 | 1014 | 63 | 0,0 |
| Maniitsoq | 05.09 15:00 | 10,7 | 9,1 | 3,4 ⇐ | 4,8 | 1012 | 41 | 0,0 |
| Sioralik | 05.09 15:00 | 8,0 | 6,4 | 2,6 ⇘ | 3,1 | 1014 | 77 | n/a |
| Niaqornaa | 05.09 15:00 | 7,9 | 4,0 | 8,0 ⇙ | 9,8 | 1008 | 34 | n/a |
| Qeqertannguaq | 05.09 15:10 | 9,3 | 9,0 | 1,3 ⇓ | 1,5 | n/a | 47 | n/a |
| Kapisillit | 05.09 15:00 | 7,1 | 4,1 | 4,7 ⇐ | 6,2 | 1006 | 57 | 0,0 |
| Kuanninnguit | 05.09 15:00 | 10,4 | 8,4 | 4,1 ⇗ | 7,6 | 1008 | 35 | n/a |
| Nuuk City | 05.09 15:10 | 7,9 | 4,9 | 5,1 ⇓ | 7,5 | 1004 | 53 | n/a |
| Ukiiviit | 05.09 15:00 | 7,7 | 6,0 | 2,6 ⇘ | 3,6 | 1012 | 64 | n/a |
| Paamiut | 05.09 15:00 | 8,3 | 5,6 | 4,7 ⇒ | 6,0 | 1009 | 43 | 0,0 |
| Narsarsuaq | 05.09 15:00 | 10,5 | 10,1 | 1,6 ⇒ | 2,5 | 1008 | 50 | n/a |
| Narsaq | 05.09 15:00 | 5,6 | 4,1 | 1,9 ⇗ | 3,1 | 1009 | 69 | 0,0 |
| Nunarsuit | 05.09 15:00 | 5,6 | 1,6 | 6,2 ⇒ | 7,7 | 1010 | 89 | n/a |
| Upernaviarsuk | 05.09 15:00 | 8,5 | 7,6 | 1,9 ⇗ | 2,7 | 1012 | 75 | n/a |
| Qaqortoq | 05.09 15:00 | 7,2 | 5,2 | 2,9 ⇗ | 5,5 | 1005 | 80 | 0,0 |
| Angisoq | 05.09 15:00 | 3,7 | -2,4 | 10,8 ⇘ | 12,4 | 1010 | 97 | n/a |
| Prins Christian Sund | 05.09 15:00 | 8,5 | 6,4 | 3,6 ⇙ | 6,2 | 1000 | 43 | n/a |
| Nanortalik | 05.09 15:00 | 7,3 | 4,4 | 4,7 ⇓ | 6,8 | 1011 | 76 | n/a |
| Ikermiuarsuk | 05.09 15:00 | 6,8 | 2,2 | 9,3 ⇓ | 12,4 | 1006 | 68 | n/a |
| Ikermit | 05.09 15:00 | 5,7 | 3,7 | 2,6 ⇒ | 3,6 | 1002 | 41 | n/a |
| Kulusuk | 05.09 15:00 | 8,3 | 5,9 | 4,0 ⇒ | 5,0 | 1007 | 52 | n/a |
| Tasiilaq | 05.09 15:00 | 8,7 | 7,1 | 2,8 ⇖ | 4,9 | 1005 | 48 | 0,0 |
| Aputiteeq | 05.09 15:00 | 3,4 | 1,4 | 2,1 ⇒ | 3,1 | 1009 | 80 | n/a |
| Ittoqqortoormiit | 05.09 15:00 | 7,4 | 4,4 | 5,0 ⇖ | 6,9 | 1000 | 59 | n/a |
| Nerlerit Inaat | 05.09 15:00 | 8,4 | 6,8 | 3,0 ⇑ | 4,0 | 1007 | 41 | n/a |
| Daneborg | 05.09 15:00 | 5,8 | 3,8 | 3,0 ⇑ | 4,0 | 1004 | 42 | n/a |
| Zackenberg | 05.09 11:00 | 5,3 | n/a | 1,7 ⇖ | 3,1 | 1001 | 40 | 0,0 |
| Danmarkshavn | 05.09 15:00 | n/a | n/a | n/a | 5,0 | n/a | n/a | n/a |
| Henrik Krøyer Holme | 05.09 15:00 | -3,3 | -5,6 | 2,0 ⇗ | 2,0 | 1003 | 98 | n/a |
| Station Nord | 05.09 15:00 | 0,0 | n/a | 1,0 ⇗ | 2,0 | 999 | 76 | n/a |
| Kap Morris Jesup | 05.09 15:00 | -6,3 | n/a | n/a | n/a | 1001 | 95 | n/a |
Advanced version ⤻
Data source - Operated by - Disclaimer ▼